Terminal Aerodrome Forecast
Issued by NWS

Home | Current Version | Previous Version | Text Only | Print | Product List | Glossary On
Versions: 1 2 3 4 5 6 7 8 9 10 11 12 13 14 15 16 17 18 19 20 21 22 23 24 25 26 27
000
FTUS41 KBOX 250543 AAB
TAFHYA
TAF AMD
KHYA 250543Z 2506/2606 32005KT 5SM BR OVC003
     FM251000 28005KT P6SM SCT003 BKN015
     FM251200 27005KT P6SM BKN030
     FM251300 26006KT P6SM BKN100
     FM251400 24007KT P6SM SCT200
     FM251800 22011KT P6SM FEW250
     FM260500 26008KT P6SM FEW250=

USA.gov is the U.S. government's official web portal to all federal, state and local government web resources and services.